Moby Aki — IBVV — position and weather

sailwx.info

Track history (hours):
 
Tides and Currents Weather Stations Pressure Air Temp Water Temp Dewpoint Dewpoint Depression Visibility Wind Speed Wind Dir Waves Ship Positions

Moby Aki

Last reported at 2015-Sep-01 20:30 UTC. Time now 2015-Sep-02 06:28 UTC.
Position N 40°56' E 009°38'.

Length 175 m; draft 6.9 m.

Type: Passenger vessel. MMSI: 247132400.

Date/timePositionNaut miles runAvg speedWind from/ knotsBaromVisibWave heightAir tempDewpointWater temp
2015-Sep-01 20:30N 40°56' E 009°38'130 9.9
2015-Sep-01 07:27N 43°04' E 010°05'2426.3
2015-Sep-01 06:33N 43°27' E 010°12'7 3.1
2015-Sep-01 04:17N 43°33' E 010°18'6 7.9
2015-Sep-01 03:33N 43°28' E 010°14'5025.0
2015-Sep-01 01:34N 42°40' E 009°58'6525.8
2015-Aug-31 23:03N 41°36' E 009°48'1325.6
2015-Aug-31 22:34N 41°23' E 009°46'2525.2
2015-Aug-31 21:33N 40°58' E 009°40'47 9.4
2015-Aug-31 16:33N 41°41' E 010°06'2727.1
2015-Aug-31 15:34N 42°06' E 010°20'4026.7
2015-Aug-31 14:05N 42°45' E 010°32'6 3.0
2015-Aug-31 12:10N 42°50' E 010°34'1926.3
2015-Aug-31 11:26N 42°31' E 010°30'2325.8
2015-Aug-31 10:33N 42°10' E 010°22'3326.1
2015-Aug-31 09:18N 41°39' E 010°05'4811.6
2015-Aug-31 05:09N 40°56' E 009°36'4024.8
2015-Aug-31 03:33N 41°35' E 009°48'2626.4
2015-Aug-31 02:34N 42°01' E 009°52'2626.2
2015-Aug-31 01:33N 42°27' E 009°57'2626.3
2015-Aug-31 00:34N 42°53' E 010°02'2726.6
2015-Aug-30 23:34N 43°19' E 010°10'1614.9
2015-Aug-30 22:31N 43°33' E 010°18'0 0.0
2015-Aug-30 21:28N 43°33' E 010°18'3 3.7
2015-Aug-30 20:34N 43°31' E 010°15'3325.3
2015-Aug-30 19:14N 42°58' E 010°04'1826.2
2015-Aug-30 18:32N 42°40' E 009°59'2726.3
2015-Aug-30 17:30N 42°13' E 009°54'6126.2
2015-Aug-30 15:11N 41°13' E 009°44'1724.8
2015-Aug-30 14:30N 40°57' E 009°37'5 5.1
2015-Aug-30 13:33N 40°55' E 009°31'0 0.1
2015-Aug-30 12:33N 40°55' E 009°31'10824.2
2015-Aug-30 08:04N 42°42' E 009°59'1426.3
2015-Aug-30 07:33N 42°55' E 010°02'2726.8
2015-Aug-30 06:33N 43°21' E 010°10'13 5.5
2015-Aug-30 04:09N 43°33' E 010°18'4 6.0
2015-Aug-30 03:33N 43°30' E 010°15'2121.6
2015-Aug-30 02:33N 43°10' E 010°07'4824.1
2015-Aug-30 00:34N 42°22' E 009°55'53 6.5
2015-Aug-29 16:26N 41°30' E 009°59'2426.7
2015-Aug-29 15:33N 41°52' E 010°12'3626.8
2015-Aug-29 14:14N 42°25' E 010°28'2026.5
2015-Aug-29 13:28N 42°45' E 010°33'1111.8
2015-Aug-29 12:33N 42°56' E 010°33'6 6.5
2015-Aug-29 11:33N 42°49' E 010°33'2626.3
2015-Aug-29 10:33N 42°24' E 010°28'40 4.8
2015-Aug-29 02:12N 41°55' E 009°50'1726.5
2015-Aug-29 01:33N 42°12' E 009°53'2626.3
2015-Aug-29 00:33N 42°38' E 009°59'2626.3
2015-Aug-28 23:34N 43°04' E 010°05'2626.3
2015-Aug-28 22:34N 43°30' E 010°13'5 4.1
2015-Aug-28 21:20N 43°33' E 010°18'0 0.2
2015-Aug-28 20:33N 43°33' E 010°18'1919.2
2015-Aug-28 19:33N 43°15' E 010°08'3526.0
2015-Aug-28 18:13N 42°41' E 009°59'2126.5
2015-Aug-28 17:24N 42°20' E 009°55'2226.5
2015-Aug-28 16:33N 41°58' E 009°51'5 0.7
2015-Aug-28 09:32N 42°02' E 009°52'3026.8
2015-Aug-28 08:24N 42°32' E 009°57'2326.5
2015-Aug-28 07:33N 42°55' E 010°03'2726.9
2015-Aug-28 06:33N 43°21' E 010°11'48 8.8
2015-Aug-28 01:07N 42°34' E 009°58'1423.7
2015-Aug-28 00:33N 42°20' E 009°55'50 6.2
2015-Aug-27 16:26N 41°30' E 009°59'8926.4
2015-Aug-27 13:04N 42°55' E 010°34'1 1.6
2015-Aug-27 12:32N 42°56' E 010°33'1010.1
2015-Aug-27 11:33N 42°46' E 010°33'7725.5
2015-Aug-27 08:33N 41°33' E 010°00'9710.7
2015-Aug-26 23:33N 43°10' E 010°07'2323.1
2015-Aug-26 22:33N 43°32' E 010°16'2 1.8
2015-Aug-26 21:31N 43°33' E 010°18'2 2.2
2015-Aug-26 20:31N 43°31' E 010°16'2425.0
2015-Aug-26 19:32N 43°08' E 010°06'25 1.8
2015-Aug-26 06:05N 43°32' E 010°16'16010.7
2015-Aug-25 15:06N 40°55' E 009°31'0 0.0
2015-Aug-25 14:33N 40°55' E 009°31'0 0.0
2015-Aug-25 13:33N 40°55' E 009°31'1 0.0
2015-Aug-24 20:33N 40°55' E 009°32'1 0.6
2015-Aug-24 19:31N 40°55' E 009°31'3 3.4
2015-Aug-24 18:33N 40°56' E 009°36'1 0.0
2015-Aug-24 07:11N 40°55' E 009°35'3 4.1
2015-Aug-24 06:31N 40°55' E 009°31'0 0.0
2015-Aug-24 05:33N 40°55' E 009°31'56 4.3
2015-Aug-23 16:32N 41°49' E 009°50'5525.0
2015-Aug-23 14:20N 40°55' E 009°35'3 3.3
2015-Aug-23 13:33N 40°55' E 009°31'0 0.5
2015-Aug-23 12:33N 40°55' E 009°32'0 0.0
2015-Aug-22 20:33N 40°55' E 009°31'  
Track history (hours):
 
Tides and Currents Weather Stations Pressure Air Temp Water Temp Dewpoint Dewpoint Depression Visibility Wind Speed Wind Dir Waves Ship Positions

Moby Aki

Last reported at 2015-Sep-01 20:30 UTC. Time now 2015-Sep-02 06:28 UTC.
Position N 40°56' E 009°38'.

Length 175 m; draft 6.9 m.

Type: Passenger vessel. MMSI: 247132400.

Date/timePositionNaut miles runAvg speedWind from/ knotsBaromVisibWave heightAir tempDewpointWater temp
2015-Sep-01 20:30N 40°56' E 009°38'130 9.9
2015-Sep-01 07:27N 43°04' E 010°05'2426.3
2015-Sep-01 06:33N 43°27' E 010°12'7 3.1
2015-Sep-01 04:17N 43°33' E 010°18'6 7.9
2015-Sep-01 03:33N 43°28' E 010°14'5025.0
2015-Sep-01 01:34N 42°40' E 009°58'6525.8
2015-Aug-31 23:03N 41°36' E 009°48'1325.6
2015-Aug-31 22:34N 41°23' E 009°46'2525.2
2015-Aug-31 21:33N 40°58' E 009°40'47 9.4
2015-Aug-31 16:33N 41°41' E 010°06'2727.1
2015-Aug-31 15:34N 42°06' E 010°20'4026.7
2015-Aug-31 14:05N 42°45' E 010°32'6 3.0
2015-Aug-31 12:10N 42°50' E 010°34'1926.3
2015-Aug-31 11:26N 42°31' E 010°30'2325.8
2015-Aug-31 10:33N 42°10' E 010°22'3326.1
2015-Aug-31 09:18N 41°39' E 010°05'4811.6
2015-Aug-31 05:09N 40°56' E 009°36'4024.8
2015-Aug-31 03:33N 41°35' E 009°48'2626.4
2015-Aug-31 02:34N 42°01' E 009°52'2626.2
2015-Aug-31 01:33N 42°27' E 009°57'2626.3
2015-Aug-31 00:34N 42°53' E 010°02'2726.6
2015-Aug-30 23:34N 43°19' E 010°10'1614.9
2015-Aug-30 22:31N 43°33' E 010°18'0 0.0
2015-Aug-30 21:28N 43°33' E 010°18'3 3.7
2015-Aug-30 20:34N 43°31' E 010°15'3325.3
2015-Aug-30 19:14N 42°58' E 010°04'1826.2
2015-Aug-30 18:32N 42°40' E 009°59'2726.3
2015-Aug-30 17:30N 42°13' E 009°54'6126.2
2015-Aug-30 15:11N 41°13' E 009°44'1724.8
2015-Aug-30 14:30N 40°57' E 009°37'5 5.1
2015-Aug-30 13:33N 40°55' E 009°31'0 0.1
2015-Aug-30 12:33N 40°55' E 009°31'10824.2
2015-Aug-30 08:04N 42°42' E 009°59'1426.3
2015-Aug-30 07:33N 42°55' E 010°02'2726.8
2015-Aug-30 06:33N 43°21' E 010°10'13 5.5
2015-Aug-30 04:09N 43°33' E 010°18'4 6.0
2015-Aug-30 03:33N 43°30' E 010°15'2121.6
2015-Aug-30 02:33N 43°10' E 010°07'4824.1
2015-Aug-30 00:34N 42°22' E 009°55'53 6.5
2015-Aug-29 16:26N 41°30' E 009°59'2426.7
2015-Aug-29 15:33N 41°52' E 010°12'3626.8
2015-Aug-29 14:14N 42°25' E 010°28'2026.5
2015-Aug-29 13:28N 42°45' E 010°33'1111.8
2015-Aug-29 12:33N 42°56' E 010°33'6 6.5
2015-Aug-29 11:33N 42°49' E 010°33'2626.3
2015-Aug-29 10:33N 42°24' E 010°28'40 4.8
2015-Aug-29 02:12N 41°55' E 009°50'1726.5
2015-Aug-29 01:33N 42°12' E 009°53'2626.3
2015-Aug-29 00:33N 42°38' E 009°59'2626.3
2015-Aug-28 23:34N 43°04' E 010°05'2626.3
2015-Aug-28 22:34N 43°30' E 010°13'5 4.1
2015-Aug-28 21:20N 43°33' E 010°18'0 0.2
2015-Aug-28 20:33N 43°33' E 010°18'1919.2
2015-Aug-28 19:33N 43°15' E 010°08'3526.0
2015-Aug-28 18:13N 42°41' E 009°59'2126.5
2015-Aug-28 17:24N 42°20' E 009°55'2226.5
2015-Aug-28 16:33N 41°58' E 009°51'5 0.7
2015-Aug-28 09:32N 42°02' E 009°52'3026.8
2015-Aug-28 08:24N 42°32' E 009°57'2326.5
2015-Aug-28 07:33N 42°55' E 010°03'2726.9
2015-Aug-28 06:33N 43°21' E 010°11'48 8.8
2015-Aug-28 01:07N 42°34' E 009°58'1423.7
2015-Aug-28 00:33N 42°20' E 009°55'50 6.2
2015-Aug-27 16:26N 41°30' E 009°59'8926.4
2015-Aug-27 13:04N 42°55' E 010°34'1 1.6
2015-Aug-27 12:32N 42°56' E 010°33'1010.1
2015-Aug-27 11:33N 42°46' E 010°33'7725.5
2015-Aug-27 08:33N 41°33' E 010°00'9710.7
2015-Aug-26 23:33N 43°10' E 010°07'2323.1
2015-Aug-26 22:33N 43°32' E 010°16'2 1.8
2015-Aug-26 21:31N 43°33' E 010°18'2 2.2
2015-Aug-26 20:31N 43°31' E 010°16'2425.0
2015-Aug-26 19:32N 43°08' E 010°06'25 1.8
2015-Aug-26 06:05N 43°32' E 010°16'16010.7
2015-Aug-25 15:06N 40°55' E 009°31'0 0.0
2015-Aug-25 14:33N 40°55' E 009°31'0 0.0
2015-Aug-25 13:33N 40°55' E 009°31'1 0.0
2015-Aug-24 20:33N 40°55' E 009°32'1 0.6
2015-Aug-24 19:31N 40°55' E 009°31'3 3.4
2015-Aug-24 18:33N 40°56' E 009°36'1 0.0
2015-Aug-24 07:11N 40°55' E 009°35'3 4.1
2015-Aug-24 06:31N 40°55' E 009°31'0 0.0
2015-Aug-24 05:33N 40°55' E 009°31'56 4.3
2015-Aug-23 16:32N 41°49' E 009°50'5525.0
2015-Aug-23 14:20N 40°55' E 009°35'3 3.3
2015-Aug-23 13:33N 40°55' E 009°31'0 0.5
2015-Aug-23 12:33N 40°55' E 009°32'0 0.0
2015-Aug-22 20:33N 40°55' E 009°31'  

Dump ship's entire track history